St. Day, United Kingdom
Current Conditions -  °F | °C
As of 5:50 PM on Friday 24 Oct 2014 (Local Time) from EGDR Reporting Station
Few Clouds Few Clouds  
Wind Chill: 13°   Ceiling: Unl
Heat Index: 13°   Visibility: 6mi
Dew Point:   Wind: 9mph
Humidity: 77%   Direction: 280°W
Pressure: 29.97"   Gusts: NA
Location:  50.24°N, 5.19°W
Report Text: EGDR 241650Z 28008KT 9999 FEW018 13/09 Q1015 BLU
Loading
Personal Weather Stations






























Interactive Weather Map
Tropical Storm Tracking
New forecast layout! Learn more

10-Day Weather Forecast

Advertisements
Track Severe Weather on mobile